Time;durP1;ratioP1;P1;durP2;ratioP2;P2;SDS_P1;SDS_P2;PMS_P1;PMS_P2;Temp;Humidity;BMP_temperature;BMP_pressure;BME280_temperature;BME280_humidity;BME280_pressure;Samples;Min_cycle;Max_cycle;Signal;HPM_P1;HPM_P2
2021/10/05 00:01:46;;;;;;;21.73;10.23;;;;;;;4.74;87.83;100782.37;1732673;82;20953;-84
2021/10/05 00:04:13;;;;;;;22.15;10.30;;;;;;;4.73;87.85;100782.92;1718808;81;21575;-83
2021/10/05 00:06:39;;;;;;;19.80;10.63;;;;;;;4.72;87.94;100779.08;1733938;81;21518;-78
2021/10/05 00:09:06;;;;;;;21.23;10.45;;;;;;;4.68;88.09;100782.01;1742125;81;20921;-78
2021/10/05 00:11:33;;;;;;;22.22;11.22;;;;;;;4.66;88.24;100780.89;1728521;81;20977;-78
2021/10/05 00:14:00;;;;;;;20.00;11.63;;;;;;;4.64;88.41;100772.16;1733643;81;20976;-79
2021/10/05 00:16:26;;;;;;;20.82;12.00;;;;;;;4.62;88.77;100770.25;1738113;81;20992;-81
2021/10/05 00:18:54;;;;;;;19.40;11.03;;;;;;;4.63;89.22;100769.97;1733308;81;21154;-80
2021/10/05 00:21:20;;;;;;;18.25;10.63;;;;;;;4.65;89.33;100770.55;1727343;80;20988;-82
2021/10/05 00:23:47;;;;;;;21.25;11.03;;;;;;;4.65;89.27;100773.80;1730906;79;21008;-82
2021/10/05 00:26:13;;;;;;;20.32;11.15;;;;;;;4.64;89.30;100773.52;1727363;79;21209;-79
2021/10/05 00:28:40;;;;;;;22.17;10.95;;;;;;;4.62;89.45;100775.69;1728272;79;20922;-81
2021/10/05 00:31:07;;;;;;;19.48;10.85;;;;;;;4.60;89.54;100772.39;1739390;82;21050;-84
2021/10/05 00:33:34;;;;;;;19.65;10.65;;;;;;;4.55;89.39;100775.84;1719186;82;20946;-81
2021/10/05 00:36:01;;;;;;;25.37;11.75;;;;;;;4.55;89.39;100775.84;1728401;81;20918;-81
2021/10/05 00:38:27;;;;;;;23.35;11.43;;;;;;;4.53;89.49;100773.91;1723048;81;20950;-80
2021/10/05 00:40:55;;;;;;;24.52;11.88;;;;;;;4.50;89.68;100771.68;1723455;81;20952;-81
2021/10/05 00:43:21;;;;;;;24.43;13.32;;;;;;;4.46;89.52;100773.24;1727453;81;21538;-80
2021/10/05 00:45:47;;;;;;;21.55;11.53;;;;;;;4.42;89.72;100763.92;1735945;82;20929;-81
2021/10/05 00:48:14;;;;;;;21.30;11.20;;;;;;;4.35;90.48;100778.74;1735122;82;21032;-82
2021/10/05 00:50:40;;;;;;;25.82;12.15;;;;;;;4.35;90.48;100778.74;1730241;81;20968;-81
2021/10/05 00:53:07;;;;;;;20.80;11.15;;;;;;;4.34;90.48;100775.73;1728649;81;20949;-81
2021/10/05 00:55:36;;;;;;;22.05;11.35;;;;;;;4.32;90.73;100778.70;1736184;81;21503;-82
2021/10/05 00:58:02;;;;;;;25.48;12.93;;;;;;;4.32;90.89;100775.98;1747241;81;20889;-82
2021/10/05 01:00:29;;;;;;;22.50;11.93;;;;;;;4.30;91.10;100777.58;1726702;80;20945;-82
2021/10/05 01:02:57;;;;;;;19.23;11.50;;;;;;;4.30;91.30;100783.55;1739057;81;21011;-82
2021/10/05 01:05:23;;;;;;;22.77;11.12;;;;;;;4.30;91.58;100783.55;1730834;80;21134;-82
2021/10/05 01:07:50;;;;;;;26.82;12.33;;;;;;;4.28;91.59;100787.88;1733389;81;21550;-79
2021/10/05 01:10:17;;;;;;;19.45;11.43;;;;;;;4.28;91.82;100781.61;1737438;81;21055;-79
2021/10/05 01:12:48;;;;;;;18.05;10.98;;;;;;;4.26;91.73;100784.58;1733992;81;20993;-78
2021/10/05 01:15:18;;;;;;;19.20;11.65;;;;;;;4.25;91.73;100788.36;1744218;81;21087;-80
2021/10/05 01:17:44;;;;;;;20.88;12.10;;;;;;;4.23;91.75;100789.14;1713296;82;20855;-80
2021/10/05 01:20:11;;;;;;;27.48;12.70;;;;;;;4.21;91.79;100793.17;1716993;82;21703;-81
2021/10/05 01:22:38;;;;;;;23.87;13.08;;;;;;;4.17;91.90;100794.19;1703289;83;20977;-81
2021/10/05 01:25:11;;;;;;;21.90;11.93;;;;;;;4.15;92.33;100796.86;1707014;83;21624;-80
2021/10/05 01:27:47;;;;;;;25.23;12.68;;;;;;;4.12;92.59;100799.53;1721304;82;21564;-82
2021/10/05 01:30:15;;;;;;;24.00;12.13;;;;;;;4.09;92.97;100791.86;1696231;83;20961;-82
2021/10/05 01:32:41;;;;;;;23.10;12.73;;;;;;;4.07;93.49;100795.35;1703765;83;21173;-81
2021/10/05 01:35:09;;;;;;;23.95;11.95;;;;;;;4.07;93.54;100796.71;1705795;83;21497;-82
2021/10/05 01:37:35;;;;;;;23.50;12.30;;;;;;;4.07;93.54;100796.71;1699752;83;20969;-82
2021/10/05 01:40:07;;;;;;;19.77;12.25;;;;;;;4.03;93.69;100801.01;1699589;83;20937;-82
2021/10/05 01:42:35;;;;;;;23.75;13.05;;;;;;;4.00;93.93;100806.93;1710742;83;21021;-80
2021/10/05 01:45:02;;;;;;;27.75;13.22;;;;;;;4.00;94.14;100808.82;1708784;83;21516;-80
2021/10/05 01:47:30;;;;;;;23.35;13.58;;;;;;;3.98;94.46;100809.06;1703604;83;21486;-80
2021/10/05 01:49:57;;;;;;;27.00;12.82;;;;;;;3.99;94.55;100810.71;1703535;83;21002;-81
2021/10/05 01:52:23;;;;;;;20.35;11.43;;;;;;;3.98;94.52;100815.86;1709060;83;21111;-82
2021/10/05 01:54:50;;;;;;;25.12;13.72;;;;;;;3.97;94.64;100812.84;1703284;83;20957;-82
2021/10/05 01:57:16;;;;;;;20.85;13.15;;;;;;;3.95;94.98;100814.98;1701417;83;21483;-83
2021/10/05 01:59:43;;;;;;;22.42;12.85;;;;;;;3.95;95.07;100814.44;1700290;83;20982;-83
2021/10/05 02:02:10;;;;;;;21.27;12.03;;;;;;;3.92;94.92;100822.25;1698681;83;21088;-78
2021/10/05 02:04:36;;;;;;;21.23;12.43;;;;;;;3.90;95.01;100817.06;1701721;83;21692;-78
2021/10/05 02:07:03;;;;;;;22.25;12.88;;;;;;;3.88;95.27;100819.19;1710356;83;20874;-77
2021/10/05 02:09:31;;;;;;;22.02;12.13;;;;;;;3.88;95.40;100825.98;1708790;83;22003;-77
2021/10/05 02:11:58;;;;;;;23.05;12.58;;;;;;;3.87;95.56;100825.69;1696013;83;21500;-77
2021/10/05 02:14:25;;;;;;;22.22;12.65;;;;;;;3.86;95.97;100826.75;1691717;83;21437;-77
2021/10/05 02:16:51;;;;;;;19.48;12.25;;;;;;;3.86;96.19;100826.75;1697350;83;21013;-77
2021/10/05 02:19:18;;;;;;;22.30;13.35;;;;;;;3.88;96.41;100831.41;1706435;83;21025;-78
2021/10/05 02:21:45;;;;;;;23.60;13.68;;;;;;;3.88;96.43;100836.02;1701125;83;21202;-77
2021/10/05 02:26:47;;;;;;;25.70;14.43;;;;;;;3.88;96.77;100834.66;1694621;83;21054;-75
2021/10/05 02:29:14;;;;;;;26.97;13.00;;;;;;;3.87;96.96;100837.91;1706129;83;21038;-76
2021/10/05 02:31:40;;;;;;;28.38;13.88;;;;;;;3.86;97.12;100847.13;1705203;83;21005;-76
2021/10/05 02:34:07;;;;;;;31.17;14.60;;;;;;;3.86;97.12;100847.13;1705077;83;22166;-77
2021/10/05 02:36:35;;;;;;;22.13;12.93;;;;;;;3.84;97.18;100857.41;1711895;83;21611;-76
2021/10/05 02:39:03;;;;;;;30.12;13.60;;;;;;;3.81;97.59;100856.53;1713323;83;20953;-76
2021/10/05 02:41:31;;;;;;;22.70;12.88;;;;;;;3.83;97.98;100863.08;1710900;82;21526;-79
2021/10/05 02:43:58;;;;;;;28.32;14.35;;;;;;;3.82;98.11;100862.78;1704589;83;21496;-79
2021/10/05 02:46:25;;;;;;;25.92;13.83;;;;;;;3.78;97.97;100862.44;1707215;83;21099;-81
2021/10/05 02:48:51;;;;;;;23.55;14.07;;;;;;;3.73;97.93;100855.53;1708026;83;20920;-80
2021/10/05 02:51:18;;;;;;;27.82;14.87;;;;;;;3.71;98.14;100857.66;1710625;83;21017;-79
2021/10/05 02:53:44;;;;;;;27.95;14.58;;;;;;;3.70;98.20;100851.94;1702824;83;21073;-80
2021/10/05 02:56:11;;;;;;;27.05;14.60;;;;;;;3.68;98.40;100849.17;1708160;83;20941;-79
2021/10/05 02:58:37;;;;;;;26.97;14.78;;;;;;;3.66;98.51;100850.77;1701129;83;22148;-80
2021/10/05 03:01:04;;;;;;;27.90;15.65;;;;;;;3.65;98.71;100861.33;1705070;83;20858;-83
2021/10/05 03:03:31;;;;;;;26.93;13.95;;;;;;;3.64;98.79;100852.89;1707381;83;21021;-78
2021/10/05 03:05:58;;;;;;;26.73;15.00;;;;;;;3.63;98.82;100851.23;1692315;83;21149;-82
2021/10/05 03:08:29;;;;;;;28.25;13.98;;;;;;;3.60;98.69;100855.26;1707445;84;20902;-77
2021/10/05 03:10:52;;;;;;;28.25;14.70;;;;;;;3.58;98.70;100856.55;1702549;83;21162;-79
2021/10/05 03:13:19;;;;;;;30.10;15.35;;;;;;;3.54;99.11;100858.09;1699376;83;21515;-79
2021/10/05 03:15:47;;;;;;;26.02;14.45;;;;;;;3.52;99.25;100856.15;1688822;82;21618;-78
2021/10/05 03:18:14;;;;;;;34.25;14.87;;;;;;;3.48;99.49;100859.88;1701067;81;21531;-79
2021/10/05 03:20:40;;;;;;;26.20;15.48;;;;;;;3.47;99.64;100858.75;1729995;81;20991;-79
2021/10/05 03:23:07;;;;;;;22.65;13.30;;;;;;;3.45;99.84;100863.09;1734636;80;21090;-75
2021/10/05 03:25:34;;;;;;;31.90;15.53;;;;;;;3.42;99.87;100864.09;1751000;80;20976;-79
2021/10/05 03:28:01;;;;;;;27.35;14.70;;;;;;;3.40;100.00;100860.79;1758691;80;20932;-80
2021/10/05 03:30:28;;;;;;;27.98;14.25;;;;;;;3.38;100.00;100864.27;1759846;80;21455;-80
2021/10/05 03:32:54;;;;;;;28.60;16.35;;;;;;;3.37;100.00;100863.44;1757141;80;20975;-81
2021/10/05 03:35:21;;;;;;;29.75;15.72;;;;;;;3.35;100.00;100856.59;1754272;80;21118;-80
2021/10/05 03:37:47;;;;;;;27.85;15.95;;;;;;;3.33;100.00;100857.37;1766363;80;21039;-80
2021/10/05 03:40:14;;;;;;;34.53;16.70;;;;;;;3.32;100.00;100853.83;1752303;80;20956;-80
2021/10/05 03:42:42;;;;;;;31.73;15.65;;;;;;;3.31;100.00;100857.06;1751337;80;20991;-79
2021/10/05 03:45:09;;;;;;;32.42;14.75;;;;;;;3.30;100.00;100855.95;1746813;80;21010;-77
2021/10/05 03:47:36;;;;;;;33.60;17.75;;;;;;;3.29;100.00;100859.19;1738323;81;21105;-78
2021/10/05 03:50:06;;;;;;;27.35;14.33;;;;;;;3.28;100.00;100859.43;1744796;80;20911;-78
2021/10/05 03:52:33;;;;;;;27.82;15.88;;;;;;;3.25;100.00;100861.26;1736282;80;21038;-80
2021/10/05 03:55:00;;;;;;;27.62;15.15;;;;;;;3.24;100.00;100865.86;1749011;81;20972;-78
2021/10/05 03:57:26;;;;;;;30.00;16.48;;;;;;;3.22;100.00;100872.58;1730635;80;21028;-78
2021/10/05 03:59:53;;;;;;;32.10;16.97;;;;;;;3.22;100.00;100872.58;1717561;80;21616;-78
2021/10/05 04:02:20;;;;;;;30.17;16.35;;;;;;;3.21;100.00;100873.64;1703114;81;21104;-78
2021/10/05 04:04:46;;;;;;;29.15;15.78;;;;;;;3.21;100.00;100873.64;1733747;82;20905;-78
2021/10/05 04:07:12;;;;;;;37.50;17.67;;;;;;;3.21;100.00;100872.28;1747951;80;20977;-77
2021/10/05 04:09:39;;;;;;;28.65;16.57;;;;;;;3.19;100.00;100882.02;1726546;80;21464;-78
2021/10/05 04:12:07;;;;;;;32.55;16.77;;;;;;;3.18;100.00;100881.72;1720608;81;21113;-78
2021/10/05 04:14:34;;;;;;;39.98;16.65;;;;;;;3.19;100.00;100886.09;1725380;81;21005;-77
2021/10/05 04:17:01;;;;;;;32.45;16.67;;;;;;;3.20;100.00;100890.98;1727605;82;21050;-76
2021/10/05 04:19:28;;;;;;;32.42;16.55;;;;;;;3.19;100.00;100891.52;1725054;81;21086;-75
2021/10/05 04:21:54;;;;;;;30.17;16.30;;;;;;;3.18;100.00;100896.64;1736859;81;21088;-78
2021/10/05 04:24:21;;;;;;;29.37;16.65;;;;;;;3.18;100.00;100901.25;1730544;81;21080;-79
2021/10/05 04:26:47;;;;;;;31.90;17.27;;;;;;;3.17;100.00;100895.52;1739474;80;21008;-79
2021/10/05 04:29:14;;;;;;;32.95;16.60;;;;;;;3.18;100.00;100903.43;1727171;81;21054;-83
2021/10/05 04:31:41;;;;;;;38.13;17.50;;;;;;;3.19;100.00;100907.80;1734300;80;20914;-84
2021/10/05 04:34:08;;;;;;;31.15;16.30;;;;;;;3.20;100.00;100909.98;1746440;80;21551;-82
2021/10/05 04:36:34;;;;;;;28.98;16.30;;;;;;;3.21;100.00;100915.17;1730048;81;21131;-83
2021/10/05 04:39:01;;;;;;;34.65;16.60;;;;;;;3.23;100.00;100914.94;1710277;81;20999;-85
2021/10/05 04:41:28;;;;;;;30.17;16.85;;;;;;;3.26;100.00;100913.95;1726285;80;20993;-83
2021/10/05 04:43:54;;;;;;;30.97;17.40;;;;;;;3.30;100.00;100912.41;1731289;81;20972;-83
2021/10/05 04:46:21;;;;;;;38.60;17.62;;;;;;;3.33;100.00;100913.83;1738499;81;21005;-81
2021/10/05 04:48:47;;;;;;;33.35;17.37;;;;;;;3.35;100.00;100914.42;1716906;82;21127;-85
2021/10/05 04:51:14;;;;;;;28.12;15.88;;;;;;;3.38;100.00;100918.56;1715833;81;21112;-83
2021/10/05 04:53:40;;;;;;;34.58;18.37;;;;;;;3.42;100.00;100921.10;1741654;80;21503;-79
2021/10/05 04:56:07;;;;;;;34.53;18.35;;;;;;;3.46;100.00;100919.04;1744495;80;20965;-79
2021/10/05 04:58:34;;;;;;;31.73;17.15;;;;;;;3.51;100.00;100921.84;1727087;81;20959;-82
2021/10/05 05:01:01;;;;;;;33.25;16.82;;;;;;;3.56;100.00;100926.56;1737030;82;21092;-76
2021/10/05 05:03:27;;;;;;;30.00;17.25;;;;;;;3.61;100.00;100927.52;1730641;80;21554;-83
2021/10/05 05:05:54;;;;;;;30.70;17.57;;;;;;;3.67;100.00;100926.27;1739979;80;20992;-78
2021/10/05 05:08:21;;;;;;;30.45;17.60;;;;;;;3.72;100.00;100927.22;1742244;80;21518;-82
2021/10/05 05:10:47;;;;;;;32.08;17.70;;;;;;;3.80;100.00;100930.11;1731961;80;20964;-79
2021/10/05 05:13:14;;;;;;;26.35;15.45;;;;;;;3.86;100.00;100934.06;1741068;80;21472;-85
2021/10/05 05:15:41;;;;;;;34.48;17.92;;;;;;;3.94;100.00;100942.37;1740464;81;21003;-83
2021/10/05 05:18:08;;;;;;;34.30;18.95;;;;;;;4.02;100.00;100935.22;1741741;82;21480;-84
2021/10/05 05:20:36;;;;;;;34.38;18.87;;;;;;;4.12;100.00;100946.28;1731858;81;21005;-84
2021/10/05 05:23:02;;;;;;;36.95;18.02;;;;;;;4.21;100.00;100948.10;1729004;82;20988;-82
2021/10/05 05:25:29;;;;;;;28.52;16.73;;;;;;;4.29;100.00;100938.22;1734800;80;21996;-84
2021/10/05 05:27:55;;;;;;;34.65;18.45;;;;;;;4.39;100.00;100940.31;1740475;81;21534;-83
2021/10/05 05:30:22;;;;;;;40.65;19.10;;;;;;;4.49;100.00;100939.98;1734655;81;20904;-86
2021/10/05 05:32:48;;;;;;;33.10;17.02;;;;;;;4.73;100.00;100945.31;1732298;80;21049;-84
2021/10/05 05:35:15;;;;;;;33.65;18.20;;;;;;;4.73;100.00;100945.31;1721342;81;21069;-86
2021/10/05 05:37:41;;;;;;;30.45;17.20;;;;;;;4.87;100.00;100943.41;1734331;81;22181;-83
2021/10/05 05:40:11;;;;;;;35.48;16.97;;;;;;;5.15;100.00;100953.98;1734298;81;21434;-78
2021/10/05 05:42:38;;;;;;;33.28;17.02;;;;;;;5.15;100.00;100953.98;1744679;80;21641;-81
2021/10/05 05:45:05;;;;;;;28.83;15.78;;;;;;;5.25;100.00;100952.23;1718870;79;21742;-80
2021/10/05 05:47:32;;;;;;;27.25;16.37;;;;;;;5.34;100.00;100955.37;1742388;80;21080;-78
2021/10/05 05:50:00;;;;;;;32.08;17.60;;;;;;;5.51;100.00;100961.66;1711812;81;21139;-80
2021/10/05 05:52:26;;;;;;;29.80;17.02;;;;;;;5.51;100.00;100961.66;1723238;81;21033;-79
2021/10/05 05:54:53;;;;;;;29.70;16.42;;;;;;;5.61;100.00;100969.16;1732591;80;20983;-76
2021/10/05 05:57:19;;;;;;;26.12;16.15;;;;;;;5.70;100.00;100964.95;1726600;80;21391;-82
2021/10/05 05:59:46;;;;;;;25.10;15.80;;;;;;;5.80;100.00;100969.16;1726723;81;20952;-84
2021/10/05 06:02:12;;;;;;;29.23;16.62;;;;;;;5.89;100.00;100970.42;1751704;80;22138;-79
2021/10/05 06:04:39;;;;;;;27.55;16.85;;;;;;;6.09;100.00;100975.34;1729098;80;20905;-86
2021/10/05 06:07:05;;;;;;;28.42;16.65;;;;;;;6.09;100.00;100975.34;1673344;84;20926;-77
2021/10/05 06:09:34;;;;;;;26.05;15.93;;;;;;;6.21;100.00;100975.23;1660173;84;21170;-80
2021/10/05 06:12:07;;;;;;;33.42;17.02;;;;;;;6.34;100.00;100979.50;1714589;83;20939;-87
2021/10/05 06:14:32;;;;;;;28.38;15.55;;;;;;;6.43;100.00;100981.50;1723338;82;21141;-77
2021/10/05 06:17:06;;;;;;;29.67;15.78;;;;;;;6.52;99.98;100984.08;1720161;81;21049;-80
2021/10/05 06:19:27;;;;;;;32.63;16.62;;;;;;;6.61;99.82;100983.09;1667652;85;21080;-80
2021/10/05 06:21:54;;;;;;;28.98;16.70;;;;;;;6.72;99.42;100981.31;1642973;85;21006;-83
2021/10/05 06:24:21;;;;;;;27.98;16.25;;;;;;;6.81;98.66;100986.06;1633508;86;21042;-83
2021/10/05 06:26:48;;;;;;;27.10;16.23;;;;;;;6.91;98.71;100986.17;1659012;85;21513;-82
2021/10/05 06:29:15;;;;;;;32.33;18.02;;;;;;;7.05;97.88;100978.92;1718246;82;20945;-84
2021/10/05 06:31:42;;;;;;;26.85;15.95;;;;;;;7.17;97.70;100983.69;1740654;81;21015;-78
2021/10/05 06:34:09;;;;;;;30.68;16.32;;;;;;;7.29;97.21;100983.81;1726584;81;21087;-78
2021/10/05 06:36:36;;;;;;;33.60;17.17;;;;;;;7.43;96.79;100987.48;1693068;83;21484;-84
2021/10/05 06:39:03;;;;;;;26.30;16.67;;;;;;;7.56;96.21;100988.39;1703848;82;21139;-82
2021/10/05 06:41:30;;;;;;;36.50;19.70;;;;;;;7.65;94.54;100992.29;1710457;83;20989;-78
2021/10/05 06:43:57;;;;;;;51.15;21.48;;;;;;;7.71;94.34;100985.78;1694279;83;21463;-81
2021/10/05 06:46:23;;;;;;;61.20;28.62;;;;;;;7.83;94.31;100991.89;1716548;83;20951;-80
2021/10/05 06:48:50;;;;;;;72.47;33.85;;;;;;;8.08;93.29;100991.23;1710021;83;21031;-79
2021/10/05 06:51:16;;;;;;;83.75;37.13;;;;;;;8.53;93.58;101000.25;1710232;83;21107;-77
2021/10/05 06:53:43;;;;;;;90.70;43.15;;;;;;;9.13;92.05;100991.94;1679070;84;21463;-77
2021/10/05 06:56:09;;;;;;;97.62;43.95;;;;;;;9.71;87.78;100995.25;1649678;85;20965;-81
2021/10/05 06:58:35;;;;;;;88.27;40.17;;;;;;;10.08;84.63;100996.29;1667066;84;20983;-80
2021/10/05 07:01:02;;;;;;;81.42;37.20;;;;;;;10.33;82.00;100994.07;1648006;86;20968;-82
2021/10/05 07:03:28;;;;;;;62.70;31.93;;;;;;;10.52;80.64;100995.63;1641550;86;21096;-79
2021/10/05 07:05:55;;;;;;;43.25;22.98;;;;;;;10.72;79.08;100997.48;1701204;82;21404;-76
2021/10/05 07:08:21;;;;;;;50.33;22.25;;;;;;;10.84;76.85;101000.72;1702736;83;20975;-77
2021/10/05 07:10:48;;;;;;;37.63;21.45;;;;;;;10.99;77.96;101007.48;1690097;84;21539;-80
2021/10/05 07:13:14;;;;;;;37.58;21.90;;;;;;;11.29;77.37;101002.36;1698207;83;20952;-77
2021/10/05 07:15:41;;;;;;;39.25;20.88;;;;;;;11.59;74.86;101007.62;1665742;85;21588;-83
2021/10/05 07:18:08;;;;;;;28.47;16.25;;;;;;;11.82;74.99;101000.59;1659788;85;20996;-77
2021/10/05 07:20:35;;;;;;;35.15;17.07;;;;;;;12.06;70.71;101003.95;1673509;85;20991;-80
2021/10/05 07:23:01;;;;;;;81.72;24.43;;;;;;;12.00;70.76;101001.80;1682143;83;21089;-80
2021/10/05 07:25:29;;;;;;;65.67;23.12;;;;;;;12.04;71.73;101002.86;1692836;83;21020;-80
2021/10/05 07:27:57;;;;;;;125.92;33.63;;;;;;;12.16;71.26;101001.89;1751816;81;21736;-70
2021/10/05 07:30:25;;;;;;;50.60;17.45;;;;;;;12.37;71.93;101003.88;1743063;80;20919;-77
2021/10/05 07:32:54;;;;;;;30.35;15.55;;;;;;;12.64;70.36;101006.60;1732126;82;20939;-77
2021/10/05 07:35:21;;;;;;;28.77;17.35;;;;;;;12.95;69.59;101009.20;1730010;81;20962;-78
2021/10/05 07:37:47;;;;;;;23.52;14.20;;;;;;;13.19;67.25;101003.11;1727652;81;20963;-72
2021/10/05 07:40:16;;;;;;;26.30;14.35;;;;;;;13.30;64.84;101002.94;1715125;81;21465;-75
2021/10/05 07:42:43;;;;;;;51.58;19.10;;;;;;;13.30;65.61;101005.13;1710175;82;21518;-72
2021/10/05 07:45:10;;;;;;;25.52;14.95;;;;;;;13.44;65.92;101000.51;1683674;83;20978;-76
2021/10/05 07:47:37;;;;;;;25.23;14.90;;;;;;;13.73;66.12;101006.41;1647268;85;21123;-73
2021/10/05 07:50:05;;;;;;;21.30;13.98;;;;;;;13.96;63.68;101005.43;1671415;84;21099;-74
2021/10/05 07:52:33;;;;;;;20.17;13.20;;;;;;;13.97;61.74;101001.55;1670719;83;21572;-75
2021/10/05 07:55:00;;;;;;;33.00;17.55;;;;;;;14.01;62.26;101010.04;1679613;84;20972;-74
2021/10/05 07:57:28;;;;;;;25.20;14.55;;;;;;;14.07;62.27;101002.74;1686312;83;21022;-72
2021/10/05 07:59:59;;;;;;;18.57;12.58;;;;;;;14.21;62.30;100993.92;1681831;83;20948;-76
2021/10/05 08:02:32;;;;;;;19.60;11.20;;;;;;;14.38;62.12;100991.95;1666130;85;21090;-72
2021/10/05 08:05:06;;;;;;;18.15;11.78;;;;;;;14.67;60.04;100986.69;1678664;84;21148;-77
2021/10/05 08:07:32;;;;;;;40.83;15.93;;;;;;;14.83;60.32;100985.23;1633608;86;21062;-78
2021/10/05 08:09:59;;;;;;;21.05;12.78;;;;;;;15.03;59.32;100992.25;1629307;87;21012;-74
2021/10/05 08:12:34;;;;;;;53.65;18.10;;;;;;;15.20;57.97;101000.71;1650525;85;21050;-72
2021/10/05 08:15:05;;;;;;;22.30;12.65;;;;;;;15.32;57.34;101005.13;1634462;85;20968;-73
2021/10/05 08:17:39;;;;;;;18.73;11.88;;;;;;;15.50;57.71;100998.62;1620182;86;21432;-75
2021/10/05 08:20:10;;;;;;;32.00;15.80;;;;;;;15.88;56.79;101005.17;1648047;83;21463;-74
2021/10/05 08:22:38;;;;;;;33.90;18.17;;;;;;;16.19;55.72;100998.23;1698560;82;20946;-74
2021/10/05 08:25:10;;;;;;;17.20;11.63;;;;;;;16.26;54.29;101000.55;1724273;81;20996;-75
2021/10/05 08:27:39;;;;;;;22.22;11.70;;;;;;;16.26;53.19;100999.17;1667989;84;21012;-75
2021/10/05 08:30:11;;;;;;;32.70;12.45;;;;;;;16.27;51.65;100995.27;1642082;86;21037;-71
2021/10/05 08:32:41;;;;;;;20.37;11.80;;;;;;;16.26;52.81;100998.60;1706688;83;20945;-72
2021/10/05 08:35:09;;;;;;;24.90;12.47;;;;;;;16.39;52.31;100998.26;1668286;85;21083;-72
2021/10/05 08:37:44;;;;;;;23.55;11.22;;;;;;;16.67;52.81;100998.89;1699376;82;20937;-73
2021/10/05 08:40:12;;;;;;;18.75;10.93;;;;;;;17.03;52.75;100998.05;1667921;84;21054;-72
2021/10/05 08:42:41;;;;;;;14.35;10.08;;;;;;;17.33;51.04;100994.88;1691231;83;21109;-71
2021/10/05 08:45:12;;;;;;;16.55;11.85;;;;;;;17.46;49.69;101002.80;1690403;83;21044;-70
2021/10/05 08:47:43;;;;;;;18.50;10.68;;;;;;;17.47;48.97;101005.83;1680734;83;21152;-71
2021/10/05 08:50:14;;;;;;;19.50;9.98;;;;;;;17.42;47.51;100999.86;1658886;84;20907;-72
2021/10/05 08:52:50;;;;;;;42.48;11.93;;;;;;;17.35;47.57;100998.14;1650630;85;20876;-72
2021/10/05 08:55:17;;;;;;;15.20;10.30;;;;;;;17.35;48.17;101007.05;1674335;85;21131;-71
2021/10/05 08:57:50;;;;;;;18.62;10.90;;;;;;;17.31;47.32;100997.77;1649082;86;20941;-73
2021/10/05 09:00:17;;;;;;;41.28;16.75;;;;;;;17.31;48.73;100999.16;1657331;85;20994;-72
2021/10/05 09:02:51;;;;;;;15.07;9.40;;;;;;;17.41;47.26;101003.78;1702045;82;21032;-73
2021/10/05 09:05:22;;;;;;;14.65;10.75;;;;;;;17.42;47.46;100997.09;1671353;84;21687;-75
2021/10/05 09:07:51;;;;;;;21.20;10.38;;;;;;;17.61;47.17;100995.38;1647945;85;21253;-75
2021/10/05 09:10:22;;;;;;;12.85;9.18;;;;;;;17.95;48.01;100987.56;1672976;82;21512;-75
2021/10/05 09:12:51;;;;;;;14.95;8.70;;;;;;;18.18;45.47;100995.11;1676505;82;21026;-75
2021/10/05 09:15:21;;;;;;;14.33;8.83;;;;;;;18.22;44.23;100994.69;1671235;84;28493;-72
2021/10/05 09:17:56;;;;;;;13.70;8.88;;;;;;;18.18;43.95;100995.69;1704787;83;21108;-72
2021/10/05 09:20:38;;;;;;;15.70;9.48;;;;;;;18.00;43.11;100993.52;1705879;84;21799;-73
2021/10/05 09:23:15;;;;;;;11.97;8.80;;;;;;;17.95;44.45;100993.70;1739438;81;20942;-75
2021/10/05 09:25:46;;;;;;;13.68;9.00;;;;;;;18.20;44.50;100994.20;1732755;82;20894;-76
2021/10/05 09:28:23;;;;;;;14.70;8.25;;;;;;;18.42;45.04;100988.41;1724554;81;21541;-75
2021/10/05 09:31:06;;;;;;;12.10;7.75;;;;;;;18.50;41.62;100990.88;1725958;81;20930;-73
2021/10/05 09:33:38;;;;;;;11.25;7.33;;;;;;;18.45;41.58;100987.73;1690894;81;23249;-74
2021/10/05 09:36:10;;;;;;;13.80;7.05;;;;;;;18.34;40.24;100993.42;1679611;81;20998;-73
2021/10/05 09:38:41;;;;;;;9.68;6.78;;;;;;;18.17;40.01;100994.05;1726670;81;21011;-73
2021/10/05 09:41:15;;;;;;;11.57;6.45;;;;;;;18.12;40.91;100996.44;1740645;81;21107;-73
2021/10/05 09:43:46;;;;;;;13.93;6.58;;;;;;;18.20;40.50;100992.81;1713658;82;20961;-73
2021/10/05 09:46:21;;;;;;;10.40;7.42;;;;;;;18.37;40.67;100989.16;1733435;81;21202;-72
2021/10/05 09:48:47;;;;;;;10.03;6.22;;;;;;;18.44;39.93;100986.11;1739024;81;20969;-72
2021/10/05 09:51:25;;;;;;;10.72;6.33;;;;;;;18.58;41.06;100990.02;1719071;81;20960;-73
2021/10/05 09:54:01;;;;;;;12.00;6.28;;;;;;;18.74;39.18;100978.60;1699579;83;20893;-73
2021/10/05 09:56:34;;;;;;;10.78;6.55;;;;;;;18.90;39.44;100979.41;1708973;82;21013;-72
2021/10/05 09:59:13;;;;;;;12.85;6.67;;;;;;;19.03;38.95;100981.95;1700800;83;21156;-74
2021/10/05 10:01:47;;;;;;;9.20;6.12;;;;;;;18.99;37.08;100982.37;1692800;83;21048;-72
2021/10/05 10:04:15;;;;;;;11.30;6.17;;;;;;;18.95;37.32;100982.00;1704146;83;20925;-72
2021/10/05 10:06:55;;;;;;;10.15;6.45;;;;;;;19.21;37.62;100991.53;1704534;83;20885;-71
2021/10/05 10:09:24;;;;;;;8.95;5.85;;;;;;;19.25;36.82;100989.70;1676957;84;21015;-71
2021/10/05 10:11:56;;;;;;;8.63;5.40;;;;;;;19.26;37.23;100986.58;1715895;81;21088;-73
2021/10/05 10:14:29;;;;;;;8.00;5.00;;;;;;;19.18;35.18;100989.42;1711030;81;20996;-72
2021/10/05 10:17:06;;;;;;;11.18;6.30;;;;;;;18.99;35.76;100973.22;1739460;80;21041;-72
2021/10/05 10:19:39;;;;;;;9.05;4.83;;;;;;;19.01;36.43;100975.09;1742481;80;21095;-73
2021/10/05 10:22:09;;;;;;;8.93;4.95;;;;;;;19.42;36.51;100968.11;1739897;80;21031;-72
2021/10/05 10:24:53;;;;;;;8.58;5.25;;;;;;;19.84;35.40;100968.63;1711611;81;21061;-72
2021/10/05 10:27:21;;;;;;;10.85;4.87;;;;;;;19.92;34.84;100963.55;1743434;81;21426;-73
2021/10/05 10:29:53;;;;;;;12.18;5.28;;;;;;;19.48;34.10;100971.50;1734702;80;20926;-73
2021/10/05 10:32:26;;;;;;;11.08;4.83;;;;;;;18.94;35.14;100972.84;1733942;82;21531;-73
2021/10/05 10:35:05;;;;;;;6.62;4.55;;;;;;;18.49;34.33;100971.98;1712485;81;20933;-72
2021/10/05 10:37:50;;;;;;;8.48;4.37;;;;;;;18.02;34.82;100976.77;1736525;81;21131;-74
2021/10/05 10:40:34;;;;;;;7.35;4.17;;;;;;;17.92;36.37;100970.74;1743129;82;20985;-73
2021/10/05 10:43:13;;;;;;;8.63;5.20;;;;;;;18.11;35.90;100964.23;1722594;81;20950;-73
2021/10/05 10:45:52;;;;;;;8.13;5.35;;;;;;;18.12;35.96;100973.63;1705655;83;21552;-73
2021/10/05 10:48:35;;;;;;;12.93;7.40;;;;;;;18.06;35.76;100962.45;1696536;81;21020;-73
2021/10/05 10:51:20;;;;;;;8.00;4.67;;;;;;;18.01;35.73;100968.76;1697498;82;21129;-72
2021/10/05 10:53:53;;;;;;;7.70;4.25;;;;;;;18.01;35.58;100952.09;1702265;81;20937;-73
2021/10/05 10:56:34;;;;;;;8.75;5.12;;;;;;;18.16;35.97;100965.45;1714973;83;21534;-72
2021/10/05 10:59:13;;;;;;;8.23;4.20;;;;;;;18.27;34.55;100956.98;1684384;83;20937;-74
2021/10/05 11:01:46;;;;;;;7.72;5.15;;;;;;;18.40;34.88;100953.17;1721340;83;20996;-72
2021/10/05 11:04:16;;;;;;;8.70;4.50;;;;;;;18.51;34.10;100947.20;1683644;83;20921;-75
2021/10/05 11:06:53;;;;;;;8.85;4.37;;;;;;;18.56;34.96;100939.48;1713189;82;20988;-74
2021/10/05 11:09:32;;;;;;;7.55;5.25;;;;;;;18.77;34.41;100940.38;1720204;81;20864;-75
2021/10/05 11:12:09;;;;;;;8.85;4.90;;;;;;;18.94;32.65;100929.70;1715151;82;21213;-73
2021/10/05 11:14:47;;;;;;;11.50;5.42;;;;;;;18.86;33.44;100932.55;1739269;81;21441;-73
2021/10/05 11:17:17;;;;;;;7.83;5.20;;;;;;;18.82;34.31;100923.25;1710616;81;21168;-74
2021/10/05 11:19:47;;;;;;;8.18;4.78;;;;;;;18.80;34.95;100922.19;1737674;81;20964;-74
2021/10/05 11:22:20;;;;;;;8.08;5.58;;;;;;;18.82;34.09;100924.06;1701958;82;20959;-74
2021/10/05 11:24:49;;;;;;;7.90;5.05;;;;;;;18.82;34.96;100917.69;1737119;81;21042;-74